createdAt,value
2022-12-17T00:04:21.436Z,-1.33
2022-12-17T00:09:45.752Z,-1.43
2022-12-17T00:15:08.765Z,-1.44
2022-12-17T00:20:30.461Z,-1.35
2022-12-17T00:25:50.451Z,-1.23
2022-12-17T00:31:11.416Z,-1.23
2022-12-17T00:36:31.777Z,-1.19
2022-12-17T00:41:51.692Z,-1.42
2022-12-17T00:47:11.708Z,-1.40
2022-12-17T00:52:31.953Z,-1.37
2022-12-17T00:57:52.156Z,-1.50
2022-12-17T01:03:12.584Z,-1.26
2022-12-17T01:08:33.883Z,-1.20
2022-12-17T01:13:54.376Z,-1.30
2022-12-17T01:19:17.605Z,-1.20
2022-12-17T01:24:37.519Z,-1.14
2022-12-17T01:29:59.240Z,-1.33
2022-12-17T01:35:19.141Z,-1.15
2022-12-17T01:40:39.338Z,-1.28
2022-12-17T01:46:02.160Z,-1.39
2022-12-17T01:51:23.515Z,-1.14
2022-12-17T01:56:43.976Z,-1.40
2022-12-17T02:02:05.692Z,-1.39
2022-12-17T02:07:48.295Z,-1.27
2022-12-17T02:13:15.920Z,-1.32
2022-12-17T02:18:40.360Z,-1.27
2022-12-17T02:24:23.779Z,-1.30
2022-12-17T02:29:46.969Z,-1.28
2022-12-17T02:35:07.770Z,-1.28
2022-12-17T02:40:30.153Z,-1.34
2022-12-17T02:45:51.427Z,-1.15
2022-12-17T02:51:12.275Z,-1.40
2022-12-17T02:56:32.753Z,-1.26
2022-12-17T03:01:53.067Z,-1.18
2022-12-17T03:07:13.177Z,-1.24
2022-12-17T03:12:35.313Z,-1.08
2022-12-17T03:17:55.515Z,-1.25
2022-12-17T03:23:23.468Z,-1.30
2022-12-17T03:28:43.869Z,-1.29
2022-12-17T03:34:04.751Z,-1.49
2022-12-17T03:39:25.001Z,-1.52
2022-12-17T03:44:44.969Z,-1.34
2022-12-17T03:50:04.928Z,-1.22
2022-12-17T03:55:25.616Z,-1.23
2022-12-17T04:00:45.653Z,-1.32
2022-12-17T04:06:05.514Z,-1.42
2022-12-17T04:11:25.649Z,-1.19
2022-12-17T04:16:45.688Z,-1.23
2022-12-17T04:22:05.692Z,-1.33
2022-12-17T04:27:25.882Z,-1.30
2022-12-17T04:32:45.827Z,-1.23
2022-12-17T04:38:06.203Z,-1.21
2022-12-17T04:43:31.006Z,-1.31
2022-12-17T04:48:51.035Z,-1.15
2022-12-17T04:54:11.047Z,-1.15
2022-12-17T04:59:30.855Z,-1.20
2022-12-17T05:04:53.958Z,-1.18
2022-12-17T05:10:14.225Z,-1.08
2022-12-17T05:15:34.277Z,-1.13
2022-12-17T05:20:54.813Z,-1.38
2022-12-17T05:26:27.165Z,-1.20
2022-12-17T05:31:47.363Z,-1.08
2022-12-17T05:37:09.000Z,-1.11
2022-12-17T05:42:28.747Z,-1.09
2022-12-17T05:47:48.885Z,-1.05
2022-12-17T05:53:08.939Z,-0.93
2022-12-17T05:58:30.058Z,-0.87
2022-12-17T06:03:50.137Z,-1.21
2022-12-17T06:09:10.175Z,-1.07
2022-12-17T06:14:44.253Z,-0.96
2022-12-17T06:20:04.245Z,-1.18
2022-12-17T06:25:24.712Z,-0.97
2022-12-17T06:30:44.990Z,-1.27
2022-12-17T06:36:04.806Z,-0.96
2022-12-17T06:41:25.080Z,-0.88
2022-12-17T06:46:45.029Z,-1.07
2022-12-17T06:52:05.303Z,-0.91
2022-12-17T06:57:25.114Z,-0.77
2022-12-17T07:02:45.223Z,-0.87
2022-12-17T07:08:06.063Z,-1.23
2022-12-17T07:13:27.138Z,-1.06
2022-12-17T07:18:47.376Z,-1.08
2022-12-17T07:24:07.592Z,-1.00
2022-12-17T07:29:27.388Z,-0.80
2022-12-17T07:34:47.435Z,-0.77
2022-12-17T07:40:07.615Z,-0.65
2022-12-17T07:45:28.053Z,-0.74
2022-12-17T07:50:47.887Z,-0.77
2022-12-17T07:56:08.453Z,-0.72
2022-12-17T08:01:28.870Z,-0.61
2022-12-17T08:06:49.398Z,-0.63
2022-12-17T08:12:23.048Z,-0.77
2022-12-17T08:17:43.369Z,-0.57
2022-12-17T08:23:04.271Z,-0.59
2022-12-17T08:28:49.470Z,-0.43
2022-12-17T08:34:07.825Z,-0.42
2022-12-17T08:39:28.658Z,-0.63
2022-12-17T08:44:48.539Z,-0.38
2022-12-17T08:50:08.320Z,-0.44
2022-12-17T08:55:28.781Z,-0.44
2022-12-17T09:00:48.855Z,-0.25
2022-12-17T09:06:11.112Z,-0.08
2022-12-17T09:11:31.356Z,-0.27
2022-12-17T09:16:52.013Z,-0.13
2022-12-17T09:22:12.316Z,-0.02
2022-12-17T09:27:32.927Z,-0.13
2022-12-17T09:32:56.117Z,-0.13
2022-12-17T09:38:16.694Z,0.13
2022-12-17T09:43:47.067Z,0.12
2022-12-17T09:49:20.841Z,0.14
2022-12-17T09:54:46.282Z,0.04
2022-12-17T10:00:06.632Z,0.23
2022-12-17T10:05:39.848Z,0.28
2022-12-17T10:11:03.479Z,0.12
2022-12-17T10:16:44.419Z,0.13
2022-12-17T10:22:04.631Z,0.54
2022-12-17T10:27:29.019Z,0.74
2022-12-17T10:32:49.005Z,0.52
2022-12-17T10:38:09.740Z,0.30
2022-12-17T10:43:50.964Z,0.36
2022-12-17T10:49:22.083Z,0.55
2022-12-17T10:54:49.355Z,0.46
2022-12-17T11:00:10.171Z,0.48
2022-12-17T11:05:45.854Z,0.38
2022-12-17T11:11:20.252Z,0.37
2022-12-17T11:16:44.389Z,0.42
2022-12-17T11:22:09.663Z,0.32
2022-12-17T11:27:35.931Z,0.56
2022-12-17T11:33:03.328Z,0.59
2022-12-17T11:38:32.945Z,0.66
2022-12-17T11:43:56.280Z,0.55
2022-12-17T11:49:51.189Z,0.47
2022-12-17T11:55:29.035Z,0.67
2022-12-17T12:01:14.320Z,0.62
2022-12-17T12:07:05.514Z,0.64
2022-12-17T12:12:44.605Z,0.79
2022-12-17T12:18:22.538Z,0.76
2022-12-17T12:24:08.562Z,0.75
2022-12-17T12:29:31.765Z,0.75
2022-12-17T12:34:55.172Z,0.88
2022-12-17T12:40:24.282Z,0.75
2022-12-17T12:45:50.230Z,0.85
2022-12-17T12:51:36.209Z,0.51
2022-12-17T12:56:56.169Z,0.81
2022-12-17T13:02:16.790Z,0.82
2022-12-17T13:07:22.660Z,0.38
2022-12-17T13:12:33.639Z,0.35
2022-12-17T13:17:41.078Z,0.73
2022-12-17T13:23:06.446Z,0.59
2022-12-17T13:28:28.264Z,0.40
2022-12-17T13:33:44.416Z,0.51
2022-12-17T13:39:10.864Z,0.13
2022-12-17T13:44:24.937Z,0.46
2022-12-17T13:49:28.514Z,0.23
2022-12-17T13:54:30.289Z,0.17
2022-12-17T13:59:31.979Z,0.24
2022-12-17T14:04:33.727Z,0.25
2022-12-17T14:09:39.057Z,0.33
2022-12-17T14:14:43.624Z,0.59
2022-12-17T14:19:45.556Z,0.53
2022-12-17T14:24:47.267Z,0.58
2022-12-17T14:29:48.856Z,0.51
2022-12-17T14:34:51.337Z,0.32
2022-12-17T14:40:05.643Z,0.58
2022-12-17T14:45:22.959Z,0.49
2022-12-17T14:50:27.995Z,0.31
2022-12-17T14:55:55.247Z,0.37
2022-12-17T15:01:06.255Z,0.38
2022-12-17T15:06:11.839Z,0.28
2022-12-17T15:11:18.353Z,0.22
2022-12-17T15:16:19.987Z,0.36
2022-12-17T15:21:21.975Z,0.18
2022-12-17T15:26:24.092Z,0.28
2022-12-17T15:31:29.461Z,0.23
2022-12-17T15:36:33.638Z,0.06
2022-12-17T15:41:53.810Z,0.24
2022-12-17T15:46:55.561Z,0.18
2022-12-17T15:51:57.207Z,-0.02
2022-12-17T15:56:58.852Z,-0.12
2022-12-17T16:02:00.598Z,-0.08
2022-12-17T16:07:04.299Z,-0.30
2022-12-17T16:12:06.186Z,-0.33
2022-12-17T16:17:07.775Z,-0.08
2022-12-17T16:22:09.477Z,-0.38
2022-12-17T16:27:11.104Z,-0.44
2022-12-17T16:32:12.767Z,-0.36
2022-12-17T16:37:14.371Z,-0.34
2022-12-17T16:42:16.000Z,-0.29
2022-12-17T16:47:17.618Z,-0.50
2022-12-17T16:52:19.191Z,-0.32
2022-12-17T16:57:20.787Z,-0.55
2022-12-17T17:02:22.594Z,-0.73
2022-12-17T17:07:24.480Z,-0.65
2022-12-17T17:12:26.946Z,-0.73
2022-12-17T17:17:54.470Z,-0.80
2022-12-17T17:22:50.080Z,-0.88
2022-12-17T17:27:51.683Z,-0.76
2022-12-17T17:32:53.296Z,-0.70
2022-12-17T17:37:54.958Z,-0.74
2022-12-17T17:42:56.560Z,-0.59
2022-12-17T17:47:58.151Z,-0.73
2022-12-17T17:52:59.758Z,-0.48
2022-12-17T17:58:01.994Z,-0.63
2022-12-17T18:03:03.801Z,-1.03
2022-12-17T18:08:05.844Z,-1.00
2022-12-17T18:13:26.575Z,-1.10
2022-12-17T18:18:28.237Z,-1.27
2022-12-17T18:23:29.888Z,-1.27
2022-12-17T18:28:31.492Z,-1.41
2022-12-17T18:33:33.445Z,-1.15
2022-12-17T18:38:36.193Z,-1.06
2022-12-17T18:43:39.692Z,-1.09
2022-12-17T18:48:41.349Z,-0.98
2022-12-17T18:53:42.945Z,-1.05
2022-12-17T18:58:44.622Z,-1.07
2022-12-17T19:03:46.318Z,-1.00
2022-12-17T19:08:48.764Z,-1.04
2022-12-17T19:13:50.920Z,-1.32
2022-12-17T19:19:01.262Z,-1.24
2022-12-17T19:24:05.964Z,-1.35
2022-12-17T19:29:08.536Z,-1.35
2022-12-17T19:34:12.701Z,-1.33
2022-12-17T19:39:17.304Z,-1.44
2022-12-17T19:44:20.911Z,-1.45
2022-12-17T19:49:22.715Z,-1.57
2022-12-17T19:54:24.310Z,-1.70
2022-12-17T19:59:26.425Z,-1.62
2022-12-17T20:04:28.208Z,-1.62
2022-12-17T20:09:29.963Z,-1.83
2022-12-17T20:14:32.546Z,-1.78
2022-12-17T20:19:34.908Z,-1.82
2022-12-17T20:24:39.464Z,-1.99
2022-12-17T20:29:41.174Z,-2.17
2022-12-17T20:34:42.768Z,-2.12
2022-12-17T20:39:44.565Z,-2.28
2022-12-17T20:44:51.550Z,-1.96
2022-12-17T20:49:55.016Z,-2.57
2022-12-17T20:54:56.646Z,-2.54
2022-12-17T20:59:58.258Z,-2.38
2022-12-17T21:05:00.407Z,-2.28
2022-12-17T21:10:02.027Z,-2.46
2022-12-17T21:15:03.998Z,-2.61
2022-12-17T21:20:06.745Z,-2.46
2022-12-17T21:25:11.785Z,-2.80
2022-12-17T21:30:13.768Z,-2.85
2022-12-17T21:35:17.775Z,-2.80
2022-12-17T21:40:19.851Z,-2.85
2022-12-17T21:45:21.477Z,-2.84
2022-12-17T21:50:23.367Z,-2.94
2022-12-17T21:55:25.617Z,-3.03
2022-12-17T22:00:27.404Z,-2.93
2022-12-17T22:05:29.315Z,-2.89
2022-12-17T22:10:43.004Z,-3.03
2022-12-17T22:15:52.825Z,-3.08
2022-12-17T22:20:59.259Z,-3.15
2022-12-17T22:26:00.895Z,-3.31
2022-12-17T22:31:26.806Z,-3.21
2022-12-17T22:39:51.485Z,-3.26
2022-12-17T22:44:37.552Z,-3.17
2022-12-17T22:47:32.744Z,-3.32
2022-12-17T22:52:34.513Z,-3.38
2022-12-17T22:57:38.526Z,-3.27
2022-12-17T23:02:40.664Z,-3.57
2022-12-17T23:07:42.382Z,-3.43
2022-12-17T23:12:50.773Z,-3.49
2022-12-17T23:17:54.406Z,-3.37
2022-12-17T23:22:56.825Z,-3.56
2022-12-17T23:27:58.791Z,-3.62
2022-12-17T23:33:00.590Z,-3.73
2022-12-17T23:38:02.436Z,-3.83
2022-12-17T23:43:04.206Z,-3.81
2022-12-17T23:48:07.840Z,-3.84
2022-12-17T23:53:09.438Z,-3.78
2022-12-17T23:58:11.057Z,-3.97
